sensor_id;sensor_type;location;lat;lon;timestamp;P1;durP1;ratioP1;P2;durP2;ratioP2
10339;SDS011;5215;48.676;9.022;2022-07-23T00:00:34;4.15;;;3.75;;
10339;SDS011;5215;48.676;9.022;2022-07-23T00:03:02;4.82;;;4.03;;
10339;SDS011;5215;48.676;9.022;2022-07-23T00:05:29;3.88;;;3.42;;
10339;SDS011;5215;48.676;9.022;2022-07-23T00:07:56;3.92;;;3.60;;
10339;SDS011;5215;48.676;9.022;2022-07-23T00:10:22;3.90;;;3.53;;
10339;SDS011;5215;48.676;9.022;2022-07-23T00:12:49;3.83;;;3.47;;
10339;SDS011;5215;48.676;9.022;2022-07-23T00:15:16;5.10;;;3.47;;
10339;SDS011;5215;48.676;9.022;2022-07-23T00:17:42;3.67;;;3.38;;
10339;SDS011;5215;48.676;9.022;2022-07-23T00:20:11;4.55;;;3.47;;
10339;SDS011;5215;48.676;9.022;2022-07-23T00:22:45;3.90;;;3.40;;
10339;SDS011;5215;48.676;9.022;2022-07-23T00:25:12;3.92;;;3.40;;
10339;SDS011;5215;48.676;9.022;2022-07-23T00:27:38;3.70;;;3.30;;
10339;SDS011;5215;48.676;9.022;2022-07-23T00:30:05;3.78;;;3.45;;
10339;SDS011;5215;48.676;9.022;2022-07-23T00:32:44;4.10;;;3.70;;
10339;SDS011;5215;48.676;9.022;2022-07-23T00:35:12;4.32;;;3.63;;
10339;SDS011;5215;48.676;9.022;2022-07-23T00:37:39;3.53;;;3.22;;
10339;SDS011;5215;48.676;9.022;2022-07-23T00:40:06;6.80;;;3.50;;
10339;SDS011;5215;48.676;9.022;2022-07-23T00:42:33;4.30;;;3.90;;
10339;SDS011;5215;48.676;9.022;2022-07-23T00:45:00;3.88;;;3.47;;
10339;SDS011;5215;48.676;9.022;2022-07-23T00:47:26;7.68;;;3.67;;
10339;SDS011;5215;48.676;9.022;2022-07-23T00:49:53;4.30;;;3.90;;
10339;SDS011;5215;48.676;9.022;2022-07-23T00:52:21;4.35;;;3.92;;
10339;SDS011;5215;48.676;9.022;2022-07-23T00:54:48;4.53;;;3.88;;
10339;SDS011;5215;48.676;9.022;2022-07-23T00:57:15;3.70;;;3.40;;
10339;SDS011;5215;48.676;9.022;2022-07-23T00:59:43;4.13;;;3.45;;
10339;SDS011;5215;48.676;9.022;2022-07-23T01:02:10;4.13;;;3.45;;
10339;SDS011;5215;48.676;9.022;2022-07-23T01:04:36;3.75;;;3.30;;
10339;SDS011;5215;48.676;9.022;2022-07-23T01:07:03;3.65;;;3.30;;
10339;SDS011;5215;48.676;9.022;2022-07-23T01:09:31;3.63;;;3.33;;
10339;SDS011;5215;48.676;9.022;2022-07-23T01:11:58;3.85;;;3.55;;
10339;SDS011;5215;48.676;9.022;2022-07-23T01:14:25;4.18;;;3.25;;
10339;SDS011;5215;48.676;9.022;2022-07-23T01:16:52;4.03;;;3.20;;
10339;SDS011;5215;48.676;9.022;2022-07-23T01:19:19;5.10;;;3.35;;
10339;SDS011;5215;48.676;9.022;2022-07-23T01:21:47;4.15;;;2.97;;
10339;SDS011;5215;48.676;9.022;2022-07-23T01:24:16;4.38;;;3.38;;
10339;SDS011;5215;48.676;9.022;2022-07-23T01:26:44;3.13;;;2.83;;
10339;SDS011;5215;48.676;9.022;2022-07-23T01:29:12;4.40;;;3.40;;
10339;SDS011;5215;48.676;9.022;2022-07-23T01:31:39;4.47;;;3.10;;
10339;SDS011;5215;48.676;9.022;2022-07-23T01:34:06;3.22;;;2.92;;
10339;SDS011;5215;48.676;9.022;2022-07-23T01:36:33;3.15;;;2.88;;
10339;SDS011;5215;48.676;9.022;2022-07-23T01:39:00;3.92;;;3.15;;
10339;SDS011;5215;48.676;9.022;2022-07-23T01:41:28;5.32;;;3.72;;
10339;SDS011;5215;48.676;9.022;2022-07-23T01:43:54;3.97;;;3.15;;
10339;SDS011;5215;48.676;9.022;2022-07-23T01:46:21;3.60;;;3.30;;
10339;SDS011;5215;48.676;9.022;2022-07-23T01:48:48;3.85;;;3.30;;
10339;SDS011;5215;48.676;9.022;2022-07-23T01:51:15;3.15;;;2.92;;
10339;SDS011;5215;48.676;9.022;2022-07-23T01:53:41;4.57;;;3.40;;
10339;SDS011;5215;48.676;9.022;2022-07-23T01:56:08;6.80;;;3.35;;
10339;SDS011;5215;48.676;9.022;2022-07-23T01:58:36;4.93;;;3.58;;
10339;SDS011;5215;48.676;9.022;2022-07-23T02:01:02;4.25;;;3.17;;
10339;SDS011;5215;48.676;9.022;2022-07-23T02:03:29;3.95;;;3.40;;
10339;SDS011;5215;48.676;9.022;2022-07-23T02:05:56;3.50;;;3.20;;
10339;SDS011;5215;48.676;9.022;2022-07-23T02:08:22;3.90;;;3.10;;
10339;SDS011;5215;48.676;9.022;2022-07-23T02:10:49;4.75;;;3.17;;
10339;SDS011;5215;48.676;9.022;2022-07-23T02:13:16;4.25;;;3.30;;
10339;SDS011;5215;48.676;9.022;2022-07-23T02:15:44;4.05;;;3.20;;
10339;SDS011;5215;48.676;9.022;2022-07-23T02:18:11;3.17;;;2.97;;
10339;SDS011;5215;48.676;9.022;2022-07-23T02:20:38;4.25;;;3.30;;
10339;SDS011;5215;48.676;9.022;2022-07-23T02:23:05;4.03;;;3.42;;
10339;SDS011;5215;48.676;9.022;2022-07-23T02:25:32;3.58;;;3.28;;
10339;SDS011;5215;48.676;9.022;2022-07-23T02:27:59;4.93;;;3.30;;
10339;SDS011;5215;48.676;9.022;2022-07-23T02:30:26;5.20;;;3.20;;
10339;SDS011;5215;48.676;9.022;2022-07-23T02:32:54;4.32;;;3.40;;
10339;SDS011;5215;48.676;9.022;2022-07-23T02:35:20;3.92;;;3.50;;
10339;SDS011;5215;48.676;9.022;2022-07-23T02:37:47;4.40;;;3.22;;
10339;SDS011;5215;48.676;9.022;2022-07-23T02:40:14;3.58;;;3.28;;
10339;SDS011;5215;48.676;9.022;2022-07-23T02:42:40;3.60;;;3.30;;
10339;SDS011;5215;48.676;9.022;2022-07-23T02:45:07;4.13;;;3.70;;
10339;SDS011;5215;48.676;9.022;2022-07-23T02:47:34;4.20;;;3.90;;
10339;SDS011;5215;48.676;9.022;2022-07-23T02:50:02;4.70;;;3.80;;
10339;SDS011;5215;48.676;9.022;2022-07-23T02:52:30;3.17;;;2.88;;
10339;SDS011;5215;48.676;9.022;2022-07-23T02:54:57;4.40;;;3.17;;
10339;SDS011;5215;48.676;9.022;2022-07-23T02:57:23;4.47;;;3.90;;
10339;SDS011;5215;48.676;9.022;2022-07-23T02:59:50;4.95;;;3.53;;
10339;SDS011;5215;48.676;9.022;2022-07-23T03:02:16;4.85;;;3.47;;
10339;SDS011;5215;48.676;9.022;2022-07-23T03:04:43;4.72;;;3.80;;
10339;SDS011;5215;48.676;9.022;2022-07-23T03:07:11;3.58;;;3.28;;
10339;SDS011;5215;48.676;9.022;2022-07-23T03:09:37;4.35;;;3.95;;
10339;SDS011;5215;48.676;9.022;2022-07-23T03:12:04;4.03;;;3.55;;
10339;SDS011;5215;48.676;9.022;2022-07-23T03:14:31;4.57;;;3.58;;
10339;SDS011;5215;48.676;9.022;2022-07-23T03:16:58;3.67;;;3.38;;
10339;SDS011;5215;48.676;9.022;2022-07-23T03:19:25;4.45;;;4.15;;
10339;SDS011;5215;48.676;9.022;2022-07-23T03:21:52;4.28;;;3.85;;
10339;SDS011;5215;48.676;9.022;2022-07-23T03:24:20;5.05;;;3.70;;
10339;SDS011;5215;48.676;9.022;2022-07-23T03:26:48;5.85;;;3.72;;
10339;SDS011;5215;48.676;9.022;2022-07-23T03:29:15;4.07;;;3.67;;
10339;SDS011;5215;48.676;9.022;2022-07-23T03:31:42;4.15;;;3.72;;
10339;SDS011;5215;48.676;9.022;2022-07-23T03:34:08;4.30;;;3.90;;
10339;SDS011;5215;48.676;9.022;2022-07-23T03:36:35;4.55;;;3.97;;
10339;SDS011;5215;48.676;9.022;2022-07-23T03:39:02;5.68;;;4.10;;
10339;SDS011;5215;48.676;9.022;2022-07-23T03:41:30;3.92;;;3.55;;
10339;SDS011;5215;48.676;9.022;2022-07-23T03:43:56;3.90;;;3.50;;
10339;SDS011;5215;48.676;9.022;2022-07-23T03:46:23;5.00;;;4.03;;
10339;SDS011;5215;48.676;9.022;2022-07-23T03:48:50;4.43;;;4.03;;
10339;SDS011;5215;48.676;9.022;2022-07-23T03:51:16;5.05;;;3.35;;
10339;SDS011;5215;48.676;9.022;2022-07-23T03:53:43;5.53;;;3.92;;
10339;SDS011;5215;48.676;9.022;2022-07-23T03:56:09;6.88;;;3.90;;
10339;SDS011;5215;48.676;9.022;2022-07-23T03:58:37;5.68;;;3.95;;
10339;SDS011;5215;48.676;9.022;2022-07-23T04:01:04;5.18;;;4.07;;
10339;SDS011;5215;48.676;9.022;2022-07-23T04:03:30;4.78;;;4.18;;
10339;SDS011;5215;48.676;9.022;2022-07-23T04:05:57;4.47;;;4.00;;
10339;SDS011;5215;48.676;9.022;2022-07-23T04:08:24;4.75;;;3.63;;
10339;SDS011;5215;48.676;9.022;2022-07-23T04:10:51;3.95;;;3.65;;
10339;SDS011;5215;48.676;9.022;2022-07-23T04:13:18;3.83;;;3.47;;
10339;SDS011;5215;48.676;9.022;2022-07-23T04:15:46;5.10;;;4.18;;
10339;SDS011;5215;48.676;9.022;2022-07-23T04:18:13;4.70;;;3.88;;
10339;SDS011;5215;48.676;9.022;2022-07-23T04:20:42;4.13;;;3.75;;
10339;SDS011;5215;48.676;9.022;2022-07-23T04:23:08;4.57;;;3.83;;
10339;SDS011;5215;48.676;9.022;2022-07-23T04:25:35;5.13;;;4.28;;
10339;SDS011;5215;48.676;9.022;2022-07-23T04:28:02;4.65;;;3.95;;
10339;SDS011;5215;48.676;9.022;2022-07-23T04:30:29;4.15;;;3.75;;
10339;SDS011;5215;48.676;9.022;2022-07-23T04:32:57;4.82;;;3.97;;
10339;SDS011;5215;48.676;9.022;2022-07-23T04:35:24;4.72;;;4.32;;
10339;SDS011;5215;48.676;9.022;2022-07-23T04:37:50;4.47;;;4.07;;
10339;SDS011;5215;48.676;9.022;2022-07-23T04:40:17;5.20;;;4.55;;
10339;SDS011;5215;48.676;9.022;2022-07-23T04:42:43;7.63;;;4.05;;
10339;SDS011;5215;48.676;9.022;2022-07-23T04:45:10;4.88;;;4.38;;
10339;SDS011;5215;48.676;9.022;2022-07-23T04:47:37;4.10;;;3.65;;
10339;SDS011;5215;48.676;9.022;2022-07-23T04:50:05;4.20;;;3.80;;
10339;SDS011;5215;48.676;9.022;2022-07-23T04:52:32;4.38;;;3.85;;
10339;SDS011;5215;48.676;9.022;2022-07-23T04:54:58;7.57;;;4.50;;
10339;SDS011;5215;48.676;9.022;2022-07-23T04:57:25;4.65;;;4.10;;
10339;SDS011;5215;48.676;9.022;2022-07-23T04:59:51;4.57;;;4.18;;
10339;SDS011;5215;48.676;9.022;2022-07-23T05:02:18;5.57;;;4.30;;
10339;SDS011;5215;48.676;9.022;2022-07-23T05:04:45;4.43;;;4.03;;
10339;SDS011;5215;48.676;9.022;2022-07-23T05:07:13;5.53;;;3.97;;
10339;SDS011;5215;48.676;9.022;2022-07-23T05:09:39;5.45;;;4.25;;
10339;SDS011;5215;48.676;9.022;2022-07-23T05:12:06;4.70;;;4.25;;
10339;SDS011;5215;48.676;9.022;2022-07-23T05:14:33;4.60;;;4.20;;
10339;SDS011;5215;48.676;9.022;2022-07-23T05:17:00;4.80;;;4.40;;
10339;SDS011;5215;48.676;9.022;2022-07-23T05:19:26;4.55;;;4.15;;
10339;SDS011;5215;48.676;9.022;2022-07-23T05:21:53;4.72;;;4.30;;
10339;SDS011;5215;48.676;9.022;2022-07-23T05:24:21;5.65;;;4.07;;
10339;SDS011;5215;48.676;9.022;2022-07-23T05:26:47;4.95;;;4.45;;
10339;SDS011;5215;48.676;9.022;2022-07-23T05:29:14;4.43;;;4.03;;
10339;SDS011;5215;48.676;9.022;2022-07-23T05:31:42;4.68;;;4.22;;
10339;SDS011;5215;48.676;9.022;2022-07-23T05:34:08;6.70;;;4.32;;
10339;SDS011;5215;48.676;9.022;2022-07-23T05:36:35;6.32;;;4.18;;
10339;SDS011;5215;48.676;9.022;2022-07-23T05:39:02;5.38;;;4.22;;
10339;SDS011;5215;48.676;9.022;2022-07-23T05:41:30;5.07;;;4.65;;
10339;SDS011;5215;48.676;9.022;2022-07-23T05:43:56;5.28;;;4.53;;
10339;SDS011;5215;48.676;9.022;2022-07-23T05:46:23;6.53;;;4.45;;
10339;SDS011;5215;48.676;9.022;2022-07-23T05:48:50;4.88;;;4.38;;
10339;SDS011;5215;48.676;9.022;2022-07-23T05:51:19;5.03;;;4.38;;
10339;SDS011;5215;48.676;9.022;2022-07-23T05:53:46;6.40;;;4.18;;
10339;SDS011;5215;48.676;9.022;2022-07-23T05:56:12;5.03;;;4.43;;
10339;SDS011;5215;48.676;9.022;2022-07-23T05:58:40;5.22;;;4.28;;
10339;SDS011;5215;48.676;9.022;2022-07-23T06:01:07;5.10;;;4.65;;
10339;SDS011;5215;48.676;9.022;2022-07-23T06:03:34;5.53;;;4.85;;
10339;SDS011;5215;48.676;9.022;2022-07-23T06:06:00;5.50;;;4.80;;
10339;SDS011;5215;48.676;9.022;2022-07-23T06:08:27;6.32;;;5.72;;
10339;SDS011;5215;48.676;9.022;2022-07-23T06:10:53;6.00;;;4.97;;
10339;SDS011;5215;48.676;9.022;2022-07-23T06:13:20;5.90;;;5.28;;
10339;SDS011;5215;48.676;9.022;2022-07-23T06:15:48;6.65;;;5.70;;
10339;SDS011;5215;48.676;9.022;2022-07-23T06:18:14;6.38;;;4.93;;
10339;SDS011;5215;48.676;9.022;2022-07-23T06:20:41;6.03;;;5.43;;
10339;SDS011;5215;48.676;9.022;2022-07-23T06:23:08;6.32;;;5.72;;
10339;SDS011;5215;48.676;9.022;2022-07-23T06:25:34;8.77;;;5.35;;
10339;SDS011;5215;48.676;9.022;2022-07-23T06:28:01;6.53;;;5.60;;
10339;SDS011;5215;48.676;9.022;2022-07-23T06:30:27;5.70;;;5.18;;
10339;SDS011;5215;48.676;9.022;2022-07-23T06:32:56;7.43;;;5.35;;
10339;SDS011;5215;48.676;9.022;2022-07-23T06:35:22;6.15;;;5.55;;
10339;SDS011;5215;48.676;9.022;2022-07-23T06:37:49;6.55;;;5.38;;
10339;SDS011;5215;48.676;9.022;2022-07-23T06:40:16;6.55;;;5.72;;
10339;SDS011;5215;48.676;9.022;2022-07-23T06:42:42;8.05;;;5.05;;
10339;SDS011;5215;48.676;9.022;2022-07-23T06:45:09;6.28;;;5.43;;
10339;SDS011;5215;48.676;9.022;2022-07-23T06:47:36;5.78;;;5.20;;
10339;SDS011;5215;48.676;9.022;2022-07-23T06:50:04;6.30;;;5.53;;
10339;SDS011;5215;48.676;9.022;2022-07-23T06:52:31;6.50;;;5.75;;
10339;SDS011;5215;48.676;9.022;2022-07-23T06:54:58;8.25;;;5.05;;
10339;SDS011;5215;48.676;9.022;2022-07-23T06:57:24;9.00;;;4.93;;
10339;SDS011;5215;48.676;9.022;2022-07-23T06:59:51;5.47;;;4.97;;
10339;SDS011;5215;48.676;9.022;2022-07-23T07:02:18;5.22;;;4.72;;
10339;SDS011;5215;48.676;9.022;2022-07-23T07:04:44;5.82;;;5.20;;
10339;SDS011;5215;48.676;9.022;2022-07-23T07:07:12;5.10;;;4.60;;
10339;SDS011;5215;48.676;9.022;2022-07-23T07:09:39;5.53;;;5.00;;
10339;SDS011;5215;48.676;9.022;2022-07-23T07:12:06;5.72;;;4.97;;
10339;SDS011;5215;48.676;9.022;2022-07-23T07:14:33;5.53;;;4.97;;
10339;SDS011;5215;48.676;9.022;2022-07-23T07:16:59;5.60;;;4.63;;
10339;SDS011;5215;48.676;9.022;2022-07-23T07:19:26;7.22;;;4.90;;
10339;SDS011;5215;48.676;9.022;2022-07-23T07:21:52;6.20;;;4.97;;
10339;SDS011;5215;48.676;9.022;2022-07-23T07:24:20;6.00;;;4.20;;
10339;SDS011;5215;48.676;9.022;2022-07-23T07:26:47;6.20;;;4.30;;
10339;SDS011;5215;48.676;9.022;2022-07-23T07:29:13;5.32;;;4.82;;
10339;SDS011;5215;48.676;9.022;2022-07-23T07:31:40;5.20;;;4.70;;
10339;SDS011;5215;48.676;9.022;2022-07-23T07:34:07;5.55;;;4.90;;
10339;SDS011;5215;48.676;9.022;2022-07-23T07:36:33;4.97;;;4.38;;
10339;SDS011;5215;48.676;9.022;2022-07-23T07:39:02;6.07;;;4.88;;
10339;SDS011;5215;48.676;9.022;2022-07-23T07:41:30;5.05;;;4.55;;
10339;SDS011;5215;48.676;9.022;2022-07-23T07:43:57;6.22;;;4.90;;
10339;SDS011;5215;48.676;9.022;2022-07-23T07:46:23;8.25;;;4.40;;
10339;SDS011;5215;48.676;9.022;2022-07-23T07:48:52;4.90;;;4.40;;
10339;SDS011;5215;48.676;9.022;2022-07-23T07:51:19;6.25;;;4.20;;
10339;SDS011;5215;48.676;9.022;2022-07-23T07:53:45;5.43;;;4.60;;
10339;SDS011;5215;48.676;9.022;2022-07-23T07:56:12;6.10;;;4.53;;
10339;SDS011;5215;48.676;9.022;2022-07-23T07:58:40;5.13;;;4.63;;
10339;SDS011;5215;48.676;9.022;2022-07-23T08:01:06;6.35;;;5.00;;
10339;SDS011;5215;48.676;9.022;2022-07-23T08:03:33;5.13;;;4.65;;
10339;SDS011;5215;48.676;9.022;2022-07-23T08:06:00;5.32;;;4.82;;
10339;SDS011;5215;48.676;9.022;2022-07-23T08:08:26;5.47;;;4.50;;
10339;SDS011;5215;48.676;9.022;2022-07-23T08:10:53;4.90;;;4.45;;
10339;SDS011;5215;48.676;9.022;2022-07-23T08:13:20;8.23;;;6.28;;
10339;SDS011;5215;48.676;9.022;2022-07-23T08:15:48;6.03;;;4.93;;
10339;SDS011;5215;48.676;9.022;2022-07-23T08:18:14;4.97;;;4.57;;
10339;SDS011;5215;48.676;9.022;2022-07-23T08:20:41;5.15;;;4.65;;
10339;SDS011;5215;48.676;9.022;2022-07-23T08:23:08;4.43;;;4.03;;
10339;SDS011;5215;48.676;9.022;2022-07-23T08:25:35;4.88;;;4.43;;
10339;SDS011;5215;48.676;9.022;2022-07-23T08:28:04;4.43;;;4.03;;
10339;SDS011;5215;48.676;9.022;2022-07-23T08:30:32;5.35;;;4.82;;
10339;SDS011;5215;48.676;9.022;2022-07-23T08:33:02;6.18;;;5.10;;
10339;SDS011;5215;48.676;9.022;2022-07-23T08:35:32;4.47;;;4.07;;
10339;SDS011;5215;48.676;9.022;2022-07-23T08:38:00;4.93;;;4.05;;
10339;SDS011;5215;48.676;9.022;2022-07-23T08:40:29;5.05;;;4.55;;
10339;SDS011;5215;48.676;9.022;2022-07-23T08:42:57;5.15;;;4.75;;
10339;SDS011;5215;48.676;9.022;2022-07-23T08:45:25;5.07;;;4.57;;
10339;SDS011;5215;48.676;9.022;2022-07-23T08:47:53;5.05;;;4.65;;
10339;SDS011;5215;48.676;9.022;2022-07-23T08:50:22;5.03;;;4.32;;
10339;SDS011;5215;48.676;9.022;2022-07-23T08:52:50;4.32;;;3.92;;
10339;SDS011;5215;48.676;9.022;2022-07-23T08:55:17;5.57;;;4.22;;
10339;SDS011;5215;48.676;9.022;2022-07-23T08:57:45;5.97;;;4.00;;
10339;SDS011;5215;48.676;9.022;2022-07-23T09:00:14;4.90;;;4.40;;
10339;SDS011;5215;48.676;9.022;2022-07-23T09:02:43;4.47;;;4.07;;
10339;SDS011;5215;48.676;9.022;2022-07-23T09:05:10;5.18;;;4.70;;
10339;SDS011;5215;48.676;9.022;2022-07-23T09:08:02;6.38;;;4.60;;
10339;SDS011;5215;48.676;9.022;2022-07-23T09:10:31;5.03;;;4.55;;
10339;SDS011;5215;48.676;9.022;2022-07-23T09:13:21;4.43;;;4.03;;
10339;SDS011;5215;48.676;9.022;2022-07-23T09:15:50;5.30;;;4.80;;
10339;SDS011;5215;48.676;9.022;2022-07-23T09:18:17;5.03;;;4.63;;
10339;SDS011;5215;48.676;9.022;2022-07-23T09:20:44;5.60;;;4.93;;
10339;SDS011;5215;48.676;9.022;2022-07-23T09:23:12;6.20;;;4.55;;
10339;SDS011;5215;48.676;9.022;2022-07-23T09:25:39;6.03;;;5.43;;
10339;SDS011;5215;48.676;9.022;2022-07-23T09:28:05;5.63;;;5.07;;
10339;SDS011;5215;48.676;9.022;2022-07-23T09:30:32;5.53;;;5.13;;
10339;SDS011;5215;48.676;9.022;2022-07-23T09:33:04;5.38;;;4.88;;
10339;SDS011;5215;48.676;9.022;2022-07-23T09:35:47;5.72;;;5.22;;
10339;SDS011;5215;48.676;9.022;2022-07-23T09:38:17;7.32;;;5.65;;
10339;SDS011;5215;48.676;9.022;2022-07-23T09:40:45;7.18;;;6.50;;
10339;SDS011;5215;48.676;9.022;2022-07-23T09:43:12;5.80;;;5.10;;
10339;SDS011;5215;48.676;9.022;2022-07-23T09:45:51;8.20;;;6.70;;
10339;SDS011;5215;48.676;9.022;2022-07-23T09:48:18;6.90;;;5.45;;
10339;SDS011;5215;48.676;9.022;2022-07-23T09:50:44;6.18;;;5.57;;
10339;SDS011;5215;48.676;9.022;2022-07-23T09:53:11;6.88;;;6.18;;
10339;SDS011;5215;48.676;9.022;2022-07-23T09:55:51;6.15;;;5.65;;
10339;SDS011;5215;48.676;9.022;2022-07-23T09:58:24;6.05;;;5.55;;
10339;SDS011;5215;48.676;9.022;2022-07-23T10:00:52;6.13;;;5.63;;
10339;SDS011;5215;48.676;9.022;2022-07-23T10:03:19;6.53;;;5.85;;
10339;SDS011;5215;48.676;9.022;2022-07-23T10:05:46;8.40;;;5.82;;
10339;SDS011;5215;48.676;9.022;2022-07-23T10:08:14;6.30;;;5.80;;
10339;SDS011;5215;48.676;9.022;2022-07-23T10:10:46;6.32;;;5.72;;
10339;SDS011;5215;48.676;9.022;2022-07-23T10:13:14;6.43;;;5.82;;
10339;SDS011;5215;48.676;9.022;2022-07-23T10:16:00;5.53;;;5.07;;
10339;SDS011;5215;48.676;9.022;2022-07-23T10:18:27;6.35;;;5.75;;
10339;SDS011;5215;48.676;9.022;2022-07-23T10:20:56;5.72;;;5.22;;
10339;SDS011;5215;48.676;9.022;2022-07-23T10:23:24;5.70;;;5.28;;
10339;SDS011;5215;48.676;9.022;2022-07-23T10:25:59;6.30;;;5.40;;
10339;SDS011;5215;48.676;9.022;2022-07-23T10:28:45;5.82;;;5.28;;
10339;SDS011;5215;48.676;9.022;2022-07-23T10:31:26;5.82;;;5.32;;
10339;SDS011;5215;48.676;9.022;2022-07-23T10:34:00;5.70;;;5.20;;
10339;SDS011;5215;48.676;9.022;2022-07-23T10:36:36;5.28;;;4.88;;
10339;SDS011;5215;48.676;9.022;2022-07-23T10:39:10;5.30;;;4.90;;
10339;SDS011;5215;48.676;9.022;2022-07-23T10:41:42;5.63;;;5.13;;
10339;SDS011;5215;48.676;9.022;2022-07-23T10:44:10;5.40;;;4.80;;
10339;SDS011;5215;48.676;9.022;2022-07-23T10:46:54;6.30;;;5.07;;
10339;SDS011;5215;48.676;9.022;2022-07-23T10:49:28;5.38;;;4.88;;
10339;SDS011;5215;48.676;9.022;2022-07-23T10:54:45;4.90;;;4.38;;
10339;SDS011;5215;48.676;9.022;2022-07-23T10:57:15;4.85;;;4.50;;
10339;SDS011;5215;48.676;9.022;2022-07-23T11:02:43;4.90;;;4.40;;
10339;SDS011;5215;48.676;9.022;2022-07-23T11:05:12;4.72;;;4.13;;
10339;SDS011;5215;48.676;9.022;2022-07-23T11:10:42;4.80;;;4.40;;
10339;SDS011;5215;48.676;9.022;2022-07-23T11:13:29;5.47;;;4.70;;
10339;SDS011;5215;48.676;9.022;2022-07-23T11:16:04;5.32;;;4.90;;
10339;SDS011;5215;48.676;9.022;2022-07-23T11:24:13;6.05;;;4.60;;
10339;SDS011;5215;48.676;9.022;2022-07-23T11:26:43;5.13;;;4.72;;
10339;SDS011;5215;48.676;9.022;2022-07-23T11:32:17;5.22;;;4.82;;
10339;SDS011;5215;48.676;9.022;2022-07-23T11:34:48;5.00;;;4.53;;
10339;SDS011;5215;48.676;9.022;2022-07-23T11:37:26;5.07;;;4.68;;
10339;SDS011;5215;48.676;9.022;2022-07-23T11:40:01;5.32;;;4.90;;
10339;SDS011;5215;48.676;9.022;2022-07-23T11:42:31;5.28;;;4.88;;
10339;SDS011;5215;48.676;9.022;2022-07-23T11:44:59;5.63;;;5.13;;
10339;SDS011;5215;48.676;9.022;2022-07-23T11:47:26;5.80;;;5.40;;
10339;SDS011;5215;48.676;9.022;2022-07-23T11:49:53;15.70;;;14.15;;
10339;SDS011;5215;48.676;9.022;2022-07-23T11:52:22;5.55;;;5.15;;
10339;SDS011;5215;48.676;9.022;2022-07-23T11:54:49;6.03;;;5.53;;
10339;SDS011;5215;48.676;9.022;2022-07-23T11:57:17;5.63;;;5.05;;
10339;SDS011;5215;48.676;9.022;2022-07-23T11:59:45;5.93;;;5.38;;
10339;SDS011;5215;48.676;9.022;2022-07-23T12:02:14;5.93;;;5.40;;
10339;SDS011;5215;48.676;9.022;2022-07-23T12:04:42;5.63;;;5.13;;
10339;SDS011;5215;48.676;9.022;2022-07-23T12:10:03;5.22;;;4.80;;
10339;SDS011;5215;48.676;9.022;2022-07-23T12:12:35;5.43;;;4.93;;
10339;SDS011;5215;48.676;9.022;2022-07-23T12:15:03;5.03;;;4.63;;
10339;SDS011;5215;48.676;9.022;2022-07-23T12:17:33;7.20;;;5.00;;
10339;SDS011;5215;48.676;9.022;2022-07-23T12:20:02;4.97;;;4.50;;
10339;SDS011;5215;48.676;9.022;2022-07-23T12:22:34;5.22;;;4.82;;
10339;SDS011;5215;48.676;9.022;2022-07-23T12:25:03;5.28;;;4.88;;
10339;SDS011;5215;48.676;9.022;2022-07-23T12:27:32;5.30;;;4.90;;
10339;SDS011;5215;48.676;9.022;2022-07-23T12:30:14;5.15;;;4.70;;
10339;SDS011;5215;48.676;9.022;2022-07-23T12:32:46;5.05;;;4.65;;
10339;SDS011;5215;48.676;9.022;2022-07-23T12:35:14;5.38;;;4.78;;
10339;SDS011;5215;48.676;9.022;2022-07-23T12:37:42;5.30;;;4.90;;
10339;SDS011;5215;48.676;9.022;2022-07-23T12:40:23;5.55;;;5.05;;
10339;SDS011;5215;48.676;9.022;2022-07-23T12:42:53;5.32;;;4.82;;
10339;SDS011;5215;48.676;9.022;2022-07-23T12:45:21;5.28;;;4.78;;
10339;SDS011;5215;48.676;9.022;2022-07-23T12:48:14;5.93;;;5.38;;
10339;SDS011;5215;48.676;9.022;2022-07-23T12:50:44;6.28;;;5.13;;
10339;SDS011;5215;48.676;9.022;2022-07-23T12:53:16;5.68;;;5.15;;
10339;SDS011;5215;48.676;9.022;2022-07-23T12:55:44;5.80;;;5.28;;
10339;SDS011;5215;48.676;9.022;2022-07-23T12:58:13;5.45;;;4.95;;
10339;SDS011;5215;48.676;9.022;2022-07-23T13:00:49;5.47;;;5.05;;
10339;SDS011;5215;48.676;9.022;2022-07-23T13:03:22;4.95;;;4.55;;
10339;SDS011;5215;48.676;9.022;2022-07-23T13:05:50;5.57;;;4.93;;
10339;SDS011;5215;48.676;9.022;2022-07-23T13:08:17;6.03;;;5.35;;
10339;SDS011;5215;48.676;9.022;2022-07-23T13:10:44;5.68;;;5.10;;
10339;SDS011;5215;48.676;9.022;2022-07-23T13:13:13;5.32;;;4.93;;
10339;SDS011;5215;48.676;9.022;2022-07-23T13:15:40;5.88;;;5.22;;
10339;SDS011;5215;48.676;9.022;2022-07-23T13:18:06;5.68;;;5.10;;
10339;SDS011;5215;48.676;9.022;2022-07-23T13:20:34;5.43;;;5.03;;
10339;SDS011;5215;48.676;9.022;2022-07-23T13:23:01;6.03;;;5.05;;
10339;SDS011;5215;48.676;9.022;2022-07-23T13:25:28;5.30;;;4.90;;
10339;SDS011;5215;48.676;9.022;2022-07-23T13:27:54;6.03;;;5.20;;
10339;SDS011;5215;48.676;9.022;2022-07-23T13:30:21;5.70;;;5.18;;
10339;SDS011;5215;48.676;9.022;2022-07-23T13:32:48;9.00;;;8.10;;
10339;SDS011;5215;48.676;9.022;2022-07-23T13:35:14;6.32;;;5.80;;
10339;SDS011;5215;48.676;9.022;2022-07-23T13:37:42;5.82;;;5.32;;
10339;SDS011;5215;48.676;9.022;2022-07-23T13:40:09;5.60;;;5.20;;
10339;SDS011;5215;48.676;9.022;2022-07-23T13:42:36;5.47;;;4.97;;
10339;SDS011;5215;48.676;9.022;2022-07-23T13:45:04;5.80;;;5.30;;
10339;SDS011;5215;48.676;9.022;2022-07-23T13:47:32;6.43;;;4.82;;
10339;SDS011;5215;48.676;9.022;2022-07-23T13:49:59;6.75;;;5.60;;
10339;SDS011;5215;48.676;9.022;2022-07-23T13:52:26;5.97;;;5.38;;
10339;SDS011;5215;48.676;9.022;2022-07-23T13:54:54;5.78;;;5.18;;
10339;SDS011;5215;48.676;9.022;2022-07-23T13:57:20;6.50;;;5.20;;
10339;SDS011;5215;48.676;9.022;2022-07-23T13:59:47;5.60;;;5.20;;
10339;SDS011;5215;48.676;9.022;2022-07-23T14:02:13;6.85;;;5.65;;
10339;SDS011;5215;48.676;9.022;2022-07-23T14:04:43;6.40;;;5.80;;
10339;SDS011;5215;48.676;9.022;2022-07-23T14:07:10;6.07;;;5.57;;
10339;SDS011;5215;48.676;9.022;2022-07-23T14:09:37;6.30;;;5.68;;
10339;SDS011;5215;48.676;9.022;2022-07-23T14:12:06;5.85;;;5.35;;
10339;SDS011;5215;48.676;9.022;2022-07-23T14:14:33;5.47;;;5.07;;
10339;SDS011;5215;48.676;9.022;2022-07-23T14:17:00;5.80;;;5.30;;
10339;SDS011;5215;48.676;9.022;2022-07-23T14:19:27;6.00;;;5.57;;
10339;SDS011;5215;48.676;9.022;2022-07-23T14:21:54;6.00;;;5.40;;
10339;SDS011;5215;48.676;9.022;2022-07-23T14:24:21;6.50;;;5.65;;
10339;SDS011;5215;48.676;9.022;2022-07-23T14:26:47;6.30;;;5.70;;
10339;SDS011;5215;48.676;9.022;2022-07-23T14:29:15;6.32;;;5.72;;
10339;SDS011;5215;48.676;9.022;2022-07-23T14:31:42;6.15;;;5.65;;
10339;SDS011;5215;48.676;9.022;2022-07-23T14:34:09;6.18;;;5.68;;
10339;SDS011;5215;48.676;9.022;2022-07-23T14:36:36;6.18;;;5.57;;
10339;SDS011;5215;48.676;9.022;2022-07-23T14:39:03;5.97;;;5.50;;
10339;SDS011;5215;48.676;9.022;2022-07-23T14:41:30;6.45;;;5.95;;
10339;SDS011;5215;48.676;9.022;2022-07-23T14:43:57;6.05;;;5.55;;
10339;SDS011;5215;48.676;9.022;2022-07-23T14:46:25;6.43;;;5.78;;
10339;SDS011;5215;48.676;9.022;2022-07-23T14:48:53;5.75;;;5.30;;
10339;SDS011;5215;48.676;9.022;2022-07-23T14:51:19;6.68;;;5.47;;
10339;SDS011;5215;48.676;9.022;2022-07-23T14:53:46;6.25;;;5.75;;
10339;SDS011;5215;48.676;9.022;2022-07-23T14:56:13;6.40;;;5.80;;
10339;SDS011;5215;48.676;9.022;2022-07-23T14:58:40;6.15;;;5.65;;
10339;SDS011;5215;48.676;9.022;2022-07-23T15:01:07;5.63;;;5.13;;
10339;SDS011;5215;48.676;9.022;2022-07-23T15:03:35;6.50;;;5.90;;
10339;SDS011;5215;48.676;9.022;2022-07-23T15:06:02;5.97;;;5.38;;
10339;SDS011;5215;48.676;9.022;2022-07-23T15:08:29;6.55;;;5.53;;
10339;SDS011;5215;48.676;9.022;2022-07-23T15:10:56;6.65;;;5.95;;
10339;SDS011;5215;48.676;9.022;2022-07-23T15:13:23;6.55;;;6.05;;
10339;SDS011;5215;48.676;9.022;2022-07-23T15:15:49;6.95;;;6.35;;
10339;SDS011;5215;48.676;9.022;2022-07-23T15:18:16;6.30;;;5.75;;
10339;SDS011;5215;48.676;9.022;2022-07-23T15:20:44;6.38;;;5.88;;
10339;SDS011;5215;48.676;9.022;2022-07-23T15:23:11;6.47;;;5.50;;
10339;SDS011;5215;48.676;9.022;2022-07-23T15:25:38;6.10;;;5.60;;